EmailTwitter


Observations de surface / Canada / CYYZ (71624)

Régions: Québec | Canada | États-Unis | Europe | France | UK | Ailleurs
Station
Affichage
Infos & localisation pour CYYZ (71624) | Aide pour décoder les METARs

Observations prises le 2017-12-12 à 13H24 UTC à TORONTO A, ON (CYYZ)

Etat du ciel: couvert.

Obstacle(s) à la visibilité: faible neige.

Température: -3.0 Celsius

Point de rosée: -4.0 Celsius

Humidité relative: 93%

Facteur vent: -10.

Facteur vent (rafales): -11.

Vents: Ouest à 26 km/h ou 14 noeuds.

Rafale du vent: 37 km/h ou 20 noeuds.

Pression au niveau moyen de la mer: 100.06 kilopascals.

Calage altimétrique: 99.97 kilopascals ou 29.52 pouces de mercure.

Visibilité horizontale: 4.00 milles terrestres ou 6.40 kilomètres.

Hauteur du plafond: 549 mètres ( 1800 pieds ).

Observation METAR:

CYYZ 121324Z 28014G20KT 4SM -SN OVC018 M03/M04 A2952 RMK SC8 SLP006=